sensor_id;sensor_type;location;lat;lon;timestamp;P1;durP1;ratioP1;P2;durP2;ratioP2
25905;SDS011;13713;52.552;13.204;2022-10-31T00:00:40;17.35;;;12.68;;
25905;SDS011;13713;52.552;13.204;2022-10-31T00:03:06;20.13;;;13.18;;
25905;SDS011;13713;52.552;13.204;2022-10-31T00:05:31;17.45;;;12.38;;
25905;SDS011;13713;52.552;13.204;2022-10-31T00:07:57;17.48;;;12.73;;
25905;SDS011;13713;52.552;13.204;2022-10-31T00:10:23;18.48;;;13.05;;
25905;SDS011;13713;52.552;13.204;2022-10-31T00:12:48;17.48;;;13.10;;
25905;SDS011;13713;52.552;13.204;2022-10-31T00:15:14;19.33;;;13.40;;
25905;SDS011;13713;52.552;13.204;2022-10-31T00:17:39;18.17;;;12.80;;
25905;SDS011;13713;52.552;13.204;2022-10-31T00:20:05;17.55;;;12.93;;
25905;SDS011;13713;52.552;13.204;2022-10-31T00:22:31;18.23;;;13.38;;
25905;SDS011;13713;52.552;13.204;2022-10-31T00:24:56;19.50;;;13.68;;
25905;SDS011;13713;52.552;13.204;2022-10-31T00:27:22;16.65;;;12.57;;
25905;SDS011;13713;52.552;13.204;2022-10-31T00:29:47;18.17;;;13.75;;
25905;SDS011;13713;52.552;13.204;2022-10-31T00:32:13;19.45;;;13.52;;
25905;SDS011;13713;52.552;13.204;2022-10-31T00:34:39;18.05;;;13.10;;
25905;SDS011;13713;52.552;13.204;2022-10-31T00:37:04;17.55;;;13.18;;
25905;SDS011;13713;52.552;13.204;2022-10-31T00:39:30;19.83;;;13.68;;
25905;SDS011;13713;52.552;13.204;2022-10-31T00:41:55;17.52;;;12.73;;
25905;SDS011;13713;52.552;13.204;2022-10-31T00:44:21;19.15;;;13.32;;
25905;SDS011;13713;52.552;13.204;2022-10-31T00:46:46;16.90;;;13.05;;
25905;SDS011;13713;52.552;13.204;2022-10-31T00:49:12;20.50;;;14.05;;
25905;SDS011;13713;52.552;13.204;2022-10-31T00:51:37;19.00;;;13.55;;
25905;SDS011;13713;52.552;13.204;2022-10-31T00:54:03;19.00;;;13.23;;
25905;SDS011;13713;52.552;13.204;2022-10-31T00:56:29;17.90;;;12.95;;
25905;SDS011;13713;52.552;13.204;2022-10-31T00:58:54;18.30;;;13.30;;
25905;SDS011;13713;52.552;13.204;2022-10-31T01:01:20;18.05;;;12.93;;
25905;SDS011;13713;52.552;13.204;2022-10-31T01:03:45;17.60;;;13.18;;
25905;SDS011;13713;52.552;13.204;2022-10-31T01:06:12;17.27;;;12.98;;
25905;SDS011;13713;52.552;13.204;2022-10-31T01:08:39;16.55;;;12.27;;
25905;SDS011;13713;52.552;13.204;2022-10-31T01:13:31;15.70;;;12.52;;
25905;SDS011;13713;52.552;13.204;2022-10-31T01:15:57;18.17;;;13.43;;
25905;SDS011;13713;52.552;13.204;2022-10-31T01:18:24;17.38;;;12.70;;
25905;SDS011;13713;52.552;13.204;2022-10-31T01:20:57;18.65;;;13.23;;
25905;SDS011;13713;52.552;13.204;2022-10-31T01:23:24;18.33;;;12.90;;
25905;SDS011;13713;52.552;13.204;2022-10-31T01:25:58;16.83;;;12.00;;
25905;SDS011;13713;52.552;13.204;2022-10-31T01:28:28;17.50;;;12.70;;
25905;SDS011;13713;52.552;13.204;2022-10-31T01:30:53;19.58;;;12.93;;
25905;SDS011;13713;52.552;13.204;2022-10-31T01:33:19;19.23;;;13.55;;
25905;SDS011;13713;52.552;13.204;2022-10-31T01:35:45;16.08;;;12.10;;
25905;SDS011;13713;52.552;13.204;2022-10-31T01:38:10;19.35;;;13.48;;
25905;SDS011;13713;52.552;13.204;2022-10-31T01:40:36;18.20;;;12.60;;
25905;SDS011;13713;52.552;13.204;2022-10-31T01:43:01;17.45;;;12.25;;
25905;SDS011;13713;52.552;13.204;2022-10-31T01:45:27;18.50;;;13.52;;
25905;SDS011;13713;52.552;13.204;2022-10-31T01:47:53;18.70;;;13.27;;
25905;SDS011;13713;52.552;13.204;2022-10-31T01:50:26;17.98;;;13.07;;
25905;SDS011;13713;52.552;13.204;2022-10-31T01:52:56;17.83;;;13.10;;
25905;SDS011;13713;52.552;13.204;2022-10-31T01:55:28;19.45;;;13.40;;
25905;SDS011;13713;52.552;13.204;2022-10-31T01:57:59;18.55;;;13.65;;
25905;SDS011;13713;52.552;13.204;2022-10-31T02:00:31;18.75;;;13.00;;
25905;SDS011;13713;52.552;13.204;2022-10-31T02:02:57;18.33;;;13.38;;
25905;SDS011;13713;52.552;13.204;2022-10-31T02:05:24;18.30;;;12.90;;
25905;SDS011;13713;52.552;13.204;2022-10-31T02:07:55;18.67;;;13.95;;
25905;SDS011;13713;52.552;13.204;2022-10-31T02:10:28;19.25;;;13.73;;
25905;SDS011;13713;52.552;13.204;2022-10-31T02:12:57;19.42;;;13.23;;
25905;SDS011;13713;52.552;13.204;2022-10-31T02:15:24;19.65;;;12.65;;
25905;SDS011;13713;52.552;13.204;2022-10-31T02:17:51;19.65;;;13.85;;
25905;SDS011;13713;52.552;13.204;2022-10-31T02:20:18;18.20;;;13.38;;
25905;SDS011;13713;52.552;13.204;2022-10-31T02:28:30;19.08;;;13.50;;
25905;SDS011;13713;52.552;13.204;2022-10-31T02:33:59;18.50;;;13.48;;
25905;SDS011;13713;52.552;13.204;2022-10-31T02:36:48;16.73;;;13.15;;
25905;SDS011;13713;52.552;13.204;2022-10-31T02:42:14;18.00;;;13.55;;
25905;SDS011;13713;52.552;13.204;2022-10-31T02:44:52;18.27;;;13.48;;
25905;SDS011;13713;52.552;13.204;2022-10-31T02:47:26;20.15;;;13.57;;
25905;SDS011;13713;52.552;13.204;2022-10-31T02:49:59;18.33;;;13.50;;
25905;SDS011;13713;52.552;13.204;2022-10-31T02:52:31;20.77;;;14.02;;
25905;SDS011;13713;52.552;13.204;2022-10-31T02:57:37;19.33;;;13.85;;
25905;SDS011;13713;52.552;13.204;2022-10-31T03:00:07;18.63;;;13.52;;
25905;SDS011;13713;52.552;13.204;2022-10-31T03:02:45;19.98;;;13.82;;
25905;SDS011;13713;52.552;13.204;2022-10-31T03:08:03;19.23;;;14.05;;
25905;SDS011;13713;52.552;13.204;2022-10-31T03:13:11;16.70;;;12.90;;
25905;SDS011;13713;52.552;13.204;2022-10-31T03:16:11;20.15;;;14.13;;
25905;SDS011;13713;52.552;13.204;2022-10-31T03:18:46;19.38;;;13.93;;
25905;SDS011;13713;52.552;13.204;2022-10-31T03:21:25;18.55;;;13.70;;
25905;SDS011;13713;52.552;13.204;2022-10-31T03:23:56;18.95;;;13.50;;
25905;SDS011;13713;52.552;13.204;2022-10-31T03:26:24;19.83;;;13.77;;
25905;SDS011;13713;52.552;13.204;2022-10-31T03:28:58;20.80;;;14.05;;
25905;SDS011;13713;52.552;13.204;2022-10-31T03:31:29;19.35;;;13.68;;
25905;SDS011;13713;52.552;13.204;2022-10-31T03:33:58;17.10;;;13.15;;
25905;SDS011;13713;52.552;13.204;2022-10-31T03:36:29;17.23;;;13.23;;
25905;SDS011;13713;52.552;13.204;2022-10-31T03:38:58;18.83;;;12.93;;
25905;SDS011;13713;52.552;13.204;2022-10-31T03:41:27;21.40;;;13.48;;
25905;SDS011;13713;52.552;13.204;2022-10-31T03:43:58;17.90;;;13.35;;
25905;SDS011;13713;52.552;13.204;2022-10-31T03:46:32;19.85;;;14.27;;
25905;SDS011;13713;52.552;13.204;2022-10-31T03:48:58;16.40;;;13.07;;
25905;SDS011;13713;52.552;13.204;2022-10-31T03:51:26;19.38;;;13.30;;
25905;SDS011;13713;52.552;13.204;2022-10-31T03:56:40;16.92;;;13.13;;
25905;SDS011;13713;52.552;13.204;2022-10-31T04:02:16;17.95;;;13.13;;
25905;SDS011;13713;52.552;13.204;2022-10-31T04:04:44;18.60;;;13.80;;
25905;SDS011;13713;52.552;13.204;2022-10-31T04:07:11;16.55;;;13.02;;
25905;SDS011;13713;52.552;13.204;2022-10-31T04:09:39;19.02;;;13.85;;
25905;SDS011;13713;52.552;13.204;2022-10-31T04:12:08;18.60;;;13.02;;
25905;SDS011;13713;52.552;13.204;2022-10-31T04:14:50;18.38;;;13.40;;
25905;SDS011;13713;52.552;13.204;2022-10-31T04:17:18;18.85;;;13.20;;
25905;SDS011;13713;52.552;13.204;2022-10-31T04:19:47;19.42;;;13.45;;
25905;SDS011;13713;52.552;13.204;2022-10-31T04:22:13;18.83;;;13.73;;
25905;SDS011;13713;52.552;13.204;2022-10-31T04:24:39;19.48;;;13.43;;
25905;SDS011;13713;52.552;13.204;2022-10-31T04:27:06;18.23;;;13.10;;
25905;SDS011;13713;52.552;13.204;2022-10-31T04:29:32;18.27;;;13.20;;
25905;SDS011;13713;52.552;13.204;2022-10-31T04:31:58;18.77;;;13.57;;
25905;SDS011;13713;52.552;13.204;2022-10-31T04:34:23;19.50;;;13.98;;
25905;SDS011;13713;52.552;13.204;2022-10-31T04:36:49;20.05;;;13.85;;
25905;SDS011;13713;52.552;13.204;2022-10-31T04:39:16;16.92;;;12.75;;
25905;SDS011;13713;52.552;13.204;2022-10-31T04:42:05;21.13;;;14.23;;
25905;SDS011;13713;52.552;13.204;2022-10-31T04:44:30;18.35;;;14.00;;
25905;SDS011;13713;52.552;13.204;2022-10-31T04:46:59;19.50;;;13.60;;
25905;SDS011;13713;52.552;13.204;2022-10-31T04:49:25;19.58;;;14.52;;
25905;SDS011;13713;52.552;13.204;2022-10-31T04:51:51;17.77;;;13.57;;
25905;SDS011;13713;52.552;13.204;2022-10-31T04:54:17;19.90;;;14.02;;
25905;SDS011;13713;52.552;13.204;2022-10-31T04:57:02;22.17;;;13.45;;
25905;SDS011;13713;52.552;13.204;2022-10-31T04:59:28;24.15;;;14.10;;
25905;SDS011;13713;52.552;13.204;2022-10-31T05:01:54;19.08;;;13.45;;
25905;SDS011;13713;52.552;13.204;2022-10-31T05:04:27;19.85;;;13.95;;
25905;SDS011;13713;52.552;13.204;2022-10-31T05:06:53;17.02;;;12.95;;
25905;SDS011;13713;52.552;13.204;2022-10-31T05:09:18;20.10;;;14.38;;
25905;SDS011;13713;52.552;13.204;2022-10-31T05:11:45;18.77;;;13.10;;
25905;SDS011;13713;52.552;13.204;2022-10-31T05:14:39;19.45;;;13.82;;
25905;SDS011;13713;52.552;13.204;2022-10-31T05:17:31;17.42;;;13.38;;
25905;SDS011;13713;52.552;13.204;2022-10-31T05:20:24;17.60;;;13.48;;
25905;SDS011;13713;52.552;13.204;2022-10-31T05:23:12;16.63;;;11.95;;
25905;SDS011;13713;52.552;13.204;2022-10-31T05:25:40;17.50;;;13.32;;
25905;SDS011;13713;52.552;13.204;2022-10-31T05:28:06;19.27;;;13.30;;
25905;SDS011;13713;52.552;13.204;2022-10-31T05:30:32;20.17;;;14.55;;
25905;SDS011;13713;52.552;13.204;2022-10-31T05:32:59;18.63;;;13.80;;
25905;SDS011;13713;52.552;13.204;2022-10-31T05:35:34;23.65;;;13.70;;
25905;SDS011;13713;52.552;13.204;2022-10-31T05:38:14;18.55;;;13.60;;
25905;SDS011;13713;52.552;13.204;2022-10-31T05:40:41;18.50;;;14.50;;
25905;SDS011;13713;52.552;13.204;2022-10-31T05:43:07;17.08;;;12.80;;
25905;SDS011;13713;52.552;13.204;2022-10-31T05:45:32;20.23;;;14.27;;
25905;SDS011;13713;52.552;13.204;2022-10-31T05:48:02;18.55;;;13.38;;
25905;SDS011;13713;52.552;13.204;2022-10-31T05:50:47;22.70;;;13.75;;
25905;SDS011;13713;52.552;13.204;2022-10-31T05:53:15;17.77;;;12.80;;
25905;SDS011;13713;52.552;13.204;2022-10-31T05:55:41;17.70;;;13.15;;
25905;SDS011;13713;52.552;13.204;2022-10-31T05:58:11;18.98;;;13.25;;
25905;SDS011;13713;52.552;13.204;2022-10-31T06:00:40;18.33;;;13.13;;
25905;SDS011;13713;52.552;13.204;2022-10-31T06:03:08;18.77;;;14.05;;
25905;SDS011;13713;52.552;13.204;2022-10-31T06:05:43;18.38;;;13.25;;
25905;SDS011;13713;52.552;13.204;2022-10-31T06:08:08;19.17;;;13.25;;
25905;SDS011;13713;52.552;13.204;2022-10-31T06:10:36;19.63;;;14.00;;
25905;SDS011;13713;52.552;13.204;2022-10-31T06:13:02;18.80;;;14.45;;
25905;SDS011;13713;52.552;13.204;2022-10-31T06:15:33;19.23;;;13.68;;
25905;SDS011;13713;52.552;13.204;2022-10-31T06:18:00;19.70;;;14.02;;
25905;SDS011;13713;52.552;13.204;2022-10-31T06:20:29;18.75;;;13.68;;
25905;SDS011;13713;52.552;13.204;2022-10-31T06:23:00;18.80;;;13.63;;
25905;SDS011;13713;52.552;13.204;2022-10-31T06:25:26;19.00;;;13.30;;
25905;SDS011;13713;52.552;13.204;2022-10-31T06:27:52;23.25;;;14.85;;
25905;SDS011;13713;52.552;13.204;2022-10-31T06:30:18;22.15;;;14.73;;
25905;SDS011;13713;52.552;13.204;2022-10-31T06:32:44;18.63;;;13.10;;
25905;SDS011;13713;52.552;13.204;2022-10-31T06:35:11;18.60;;;14.35;;
25905;SDS011;13713;52.552;13.204;2022-10-31T06:37:38;19.73;;;14.05;;
25905;SDS011;13713;52.552;13.204;2022-10-31T06:40:19;20.27;;;13.85;;
25905;SDS011;13713;52.552;13.204;2022-10-31T06:43:03;19.83;;;13.60;;
25905;SDS011;13713;52.552;13.204;2022-10-31T06:45:30;18.75;;;13.77;;
25905;SDS011;13713;52.552;13.204;2022-10-31T06:48:12;19.20;;;13.45;;
25905;SDS011;13713;52.552;13.204;2022-10-31T06:50:47;20.20;;;13.52;;
25905;SDS011;13713;52.552;13.204;2022-10-31T06:53:13;19.88;;;13.98;;
25905;SDS011;13713;52.552;13.204;2022-10-31T06:55:40;18.40;;;13.40;;
25905;SDS011;13713;52.552;13.204;2022-10-31T06:58:07;19.08;;;12.93;;
25905;SDS011;13713;52.552;13.204;2022-10-31T07:00:34;20.65;;;13.13;;
25905;SDS011;13713;52.552;13.204;2022-10-31T07:03:06;21.08;;;14.15;;
25905;SDS011;13713;52.552;13.204;2022-10-31T07:05:35;19.05;;;13.27;;
25905;SDS011;13713;52.552;13.204;2022-10-31T07:08:02;19.58;;;12.85;;
25905;SDS011;13713;52.552;13.204;2022-10-31T07:10:30;18.52;;;13.07;;
25905;SDS011;13713;52.552;13.204;2022-10-31T07:13:01;21.45;;;14.18;;
25905;SDS011;13713;52.552;13.204;2022-10-31T07:15:36;37.57;;;16.40;;
25905;SDS011;13713;52.552;13.204;2022-10-31T07:18:04;26.40;;;15.75;;
25905;SDS011;13713;52.552;13.204;2022-10-31T07:20:33;24.08;;;16.48;;
25905;SDS011;13713;52.552;13.204;2022-10-31T07:22:58;23.33;;;17.08;;
25905;SDS011;13713;52.552;13.204;2022-10-31T07:25:25;22.70;;;15.88;;
25905;SDS011;13713;52.552;13.204;2022-10-31T07:28:03;25.60;;;17.08;;
25905;SDS011;13713;52.552;13.204;2022-10-31T07:30:29;24.23;;;17.70;;
25905;SDS011;13713;52.552;13.204;2022-10-31T07:32:56;40.20;;;28.98;;
25905;SDS011;13713;52.552;13.204;2022-10-31T07:35:24;52.45;;;34.47;;
25905;SDS011;13713;52.552;13.204;2022-10-31T07:37:55;49.28;;;34.78;;
25905;SDS011;13713;52.552;13.204;2022-10-31T07:40:22;43.97;;;31.63;;
25905;SDS011;13713;52.552;13.204;2022-10-31T07:42:48;42.15;;;30.77;;
25905;SDS011;13713;52.552;13.204;2022-10-31T07:45:34;46.15;;;33.05;;
25905;SDS011;13713;52.552;13.204;2022-10-31T07:48:26;43.67;;;32.55;;
25905;SDS011;13713;52.552;13.204;2022-10-31T07:51:20;42.20;;;30.90;;
25905;SDS011;13713;52.552;13.204;2022-10-31T07:54:12;43.67;;;31.90;;
25905;SDS011;13713;52.552;13.204;2022-10-31T07:56:38;49.85;;;32.22;;
25905;SDS011;13713;52.552;13.204;2022-10-31T07:59:05;49.30;;;32.80;;
25905;SDS011;13713;52.552;13.204;2022-10-31T08:01:30;56.13;;;35.60;;
25905;SDS011;13713;52.552;13.204;2022-10-31T08:04:17;60.20;;;38.67;;
25905;SDS011;13713;52.552;13.204;2022-10-31T08:07:08;58.50;;;39.42;;
25905;SDS011;13713;52.552;13.204;2022-10-31T08:09:36;65.72;;;39.58;;
25905;SDS011;13713;52.552;13.204;2022-10-31T08:12:10;68.57;;;42.25;;
25905;SDS011;13713;52.552;13.204;2022-10-31T08:14:36;73.25;;;46.03;;
25905;SDS011;13713;52.552;13.204;2022-10-31T08:17:02;71.70;;;45.28;;
25905;SDS011;13713;52.552;13.204;2022-10-31T08:19:37;90.05;;;59.10;;
25905;SDS011;13713;52.552;13.204;2022-10-31T08:22:03;96.57;;;59.83;;
25905;SDS011;13713;52.552;13.204;2022-10-31T08:24:28;94.28;;;59.60;;
25905;SDS011;13713;52.552;13.204;2022-10-31T08:26:56;87.80;;;58.75;;
25905;SDS011;13713;52.552;13.204;2022-10-31T08:29:22;87.55;;;59.40;;
25905;SDS011;13713;52.552;13.204;2022-10-31T08:31:47;92.60;;;61.03;;
25905;SDS011;13713;52.552;13.204;2022-10-31T08:34:31;96.25;;;60.83;;
25905;SDS011;13713;52.552;13.204;2022-10-31T08:37:15;101.68;;;62.63;;
25905;SDS011;13713;52.552;13.204;2022-10-31T08:39:46;103.80;;;68.55;;
25905;SDS011;13713;52.552;13.204;2022-10-31T08:42:13;105.90;;;68.85;;
25905;SDS011;13713;52.552;13.204;2022-10-31T08:44:38;96.40;;;65.25;;
25905;SDS011;13713;52.552;13.204;2022-10-31T08:47:04;100.97;;;66.88;;
25905;SDS011;13713;52.552;13.204;2022-10-31T08:49:32;92.03;;;62.00;;
25905;SDS011;13713;52.552;13.204;2022-10-31T08:51:57;100.25;;;65.00;;
25905;SDS011;13713;52.552;13.204;2022-10-31T08:54:27;101.68;;;68.03;;
25905;SDS011;13713;52.552;13.204;2022-10-31T08:56:54;104.38;;;66.97;;
25905;SDS011;13713;52.552;13.204;2022-10-31T08:59:31;95.25;;;63.58;;
25905;SDS011;13713;52.552;13.204;2022-10-31T09:02:19;102.78;;;67.65;;
25905;SDS011;13713;52.552;13.204;2022-10-31T09:04:47;97.97;;;66.07;;
25905;SDS011;13713;52.552;13.204;2022-10-31T09:07:13;106.00;;;73.88;;
25905;SDS011;13713;52.552;13.204;2022-10-31T09:09:38;114.18;;;78.40;;
25905;SDS011;13713;52.552;13.204;2022-10-31T09:12:04;110.75;;;78.43;;
25905;SDS011;13713;52.552;13.204;2022-10-31T09:15:04;118.90;;;81.55;;
25905;SDS011;13713;52.552;13.204;2022-10-31T09:17:46;127.93;;;83.45;;
25905;SDS011;13713;52.552;13.204;2022-10-31T09:20:19;125.40;;;84.22;;
25905;SDS011;13713;52.552;13.204;2022-10-31T09:22:46;132.57;;;94.03;;
25905;SDS011;13713;52.552;13.204;2022-10-31T09:25:12;119.18;;;85.03;;
25905;SDS011;13713;52.552;13.204;2022-10-31T09:27:39;121.03;;;87.97;;
25905;SDS011;13713;52.552;13.204;2022-10-31T09:30:05;119.78;;;87.15;;
25905;SDS011;13713;52.552;13.204;2022-10-31T09:32:32;134.80;;;94.45;;
25905;SDS011;13713;52.552;13.204;2022-10-31T09:34:58;123.00;;;86.70;;
25905;SDS011;13713;52.552;13.204;2022-10-31T09:37:24;124.68;;;88.45;;
25905;SDS011;13713;52.552;13.204;2022-10-31T09:39:50;143.02;;;101.05;;
25905;SDS011;13713;52.552;13.204;2022-10-31T09:45:01;136.75;;;98.45;;
25905;SDS011;13713;52.552;13.204;2022-10-31T09:47:43;141.90;;;102.03;;
25905;SDS011;13713;52.552;13.204;2022-10-31T09:53:10;135.63;;;94.78;;
25905;SDS011;13713;52.552;13.204;2022-10-31T09:55:58;128.10;;;92.63;;
25905;SDS011;13713;52.552;13.204;2022-10-31T09:58:25;149.45;;;107.60;;
25905;SDS011;13713;52.552;13.204;2022-10-31T10:00:54;149.35;;;104.03;;
25905;SDS011;13713;52.552;13.204;2022-10-31T10:03:27;174.75;;;117.78;;
25905;SDS011;13713;52.552;13.204;2022-10-31T10:06:18;148.57;;;104.93;;
25905;SDS011;13713;52.552;13.204;2022-10-31T10:09:24;156.52;;;108.30;;
25905;SDS011;13713;52.552;13.204;2022-10-31T10:21:01;153.15;;;106.60;;
25905;SDS011;13713;52.552;13.204;2022-10-31T10:24:01;157.20;;;113.05;;
25905;SDS011;13713;52.552;13.204;2022-10-31T10:31:44;177.25;;;120.80;;
25905;SDS011;13713;52.552;13.204;2022-10-31T10:34:19;156.40;;;114.20;;
25905;SDS011;13713;52.552;13.204;2022-10-31T10:36:51;182.05;;;129.25;;
25905;SDS011;13713;52.552;13.204;2022-10-31T10:39:25;187.15;;;133.70;;
25905;SDS011;13713;52.552;13.204;2022-10-31T10:41:57;206.07;;;147.38;;
25905;SDS011;13713;52.552;13.204;2022-10-31T10:44:46;196.05;;;140.73;;
25905;SDS011;13713;52.552;13.204;2022-10-31T10:47:36;182.63;;;134.68;;
25905;SDS011;13713;52.552;13.204;2022-10-31T10:55:15;185.45;;;130.60;;
25905;SDS011;13713;52.552;13.204;2022-10-31T11:00:26;209.75;;;153.43;;
25905;SDS011;13713;52.552;13.204;2022-10-31T11:02:55;218.60;;;153.63;;
25905;SDS011;13713;52.552;13.204;2022-10-31T11:08:07;210.23;;;151.50;;
25905;SDS011;13713;52.552;13.204;2022-10-31T11:10:33;209.80;;;152.90;;
25905;SDS011;13713;52.552;13.204;2022-10-31T11:15:28;202.07;;;142.75;;
25905;SDS011;13713;52.552;13.204;2022-10-31T11:17:58;196.00;;;135.90;;
25905;SDS011;13713;52.552;13.204;2022-10-31T11:20:29;190.57;;;136.95;;
25905;SDS011;13713;52.552;13.204;2022-10-31T11:23:04;179.57;;;127.90;;
25905;SDS011;13713;52.552;13.204;2022-10-31T11:25:47;179.63;;;126.00;;
25905;SDS011;13713;52.552;13.204;2022-10-31T11:28:14;182.73;;;129.90;;
25905;SDS011;13713;52.552;13.204;2022-10-31T11:30:46;188.80;;;133.00;;
25905;SDS011;13713;52.552;13.204;2022-10-31T11:33:16;185.07;;;134.40;;
25905;SDS011;13713;52.552;13.204;2022-10-31T11:36:03;193.10;;;136.18;;
25905;SDS011;13713;52.552;13.204;2022-10-31T11:38:50;195.38;;;140.25;;
25905;SDS011;13713;52.552;13.204;2022-10-31T11:41:17;198.07;;;143.98;;
25905;SDS011;13713;52.552;13.204;2022-10-31T11:46:48;196.52;;;143.10;;
25905;SDS011;13713;52.552;13.204;2022-10-31T11:49:19;193.85;;;137.63;;
25905;SDS011;13713;52.552;13.204;2022-10-31T11:51:49;184.93;;;135.68;;
25905;SDS011;13713;52.552;13.204;2022-10-31T11:54:25;187.70;;;134.45;;
25905;SDS011;13713;52.552;13.204;2022-10-31T11:56:54;189.95;;;136.88;;
25905;SDS011;13713;52.552;13.204;2022-10-31T11:59:30;188.88;;;138.88;;
25905;SDS011;13713;52.552;13.204;2022-10-31T12:01:57;189.23;;;133.20;;
25905;SDS011;13713;52.552;13.204;2022-10-31T12:04:28;184.80;;;133.02;;
25905;SDS011;13713;52.552;13.204;2022-10-31T12:07:05;186.00;;;134.75;;
25905;SDS011;13713;52.552;13.204;2022-10-31T12:09:34;186.60;;;133.60;;
25905;SDS011;13713;52.552;13.204;2022-10-31T12:17:46;184.35;;;136.38;;
25905;SDS011;13713;52.552;13.204;2022-10-31T12:20:23;194.88;;;138.55;;
25905;SDS011;13713;52.552;13.204;2022-10-31T12:25:33;260.48;;;167.25;;
25905;SDS011;13713;52.552;13.204;2022-10-31T12:31:24;207.73;;;147.98;;
25905;SDS011;13713;52.552;13.204;2022-10-31T12:34:14;213.40;;;149.77;;
25905;SDS011;13713;52.552;13.204;2022-10-31T12:48:17;202.27;;;140.52;;
25905;SDS011;13713;52.552;13.204;2022-10-31T12:51:25;203.88;;;139.70;;
25905;SDS011;13713;52.552;13.204;2022-10-31T12:54:24;198.75;;;136.63;;
25905;SDS011;13713;52.552;13.204;2022-10-31T13:10:02;215.32;;;141.98;;
25905;SDS011;13713;52.552;13.204;2022-10-31T13:12:51;227.73;;;150.10;;
25905;SDS011;13713;52.552;13.204;2022-10-31T13:15:22;249.10;;;159.43;;
25905;SDS011;13713;52.552;13.204;2022-10-31T13:17:55;236.40;;;153.60;;
25905;SDS011;13713;52.552;13.204;2022-10-31T13:20:29;257.13;;;161.63;;
25905;SDS011;13713;52.552;13.204;2022-10-31T13:23:10;235.85;;;155.63;;
25905;SDS011;13713;52.552;13.204;2022-10-31T13:25:45;238.00;;;154.30;;
25905;SDS011;13713;52.552;13.204;2022-10-31T13:28:25;264.20;;;175.80;;
25905;SDS011;13713;52.552;13.204;2022-10-31T13:30:56;338.38;;;221.98;;
25905;SDS011;13713;52.552;13.204;2022-10-31T13:33:34;262.48;;;169.52;;
25905;SDS011;13713;52.552;13.204;2022-10-31T13:38:50;265.70;;;167.82;;
25905;SDS011;13713;52.552;13.204;2022-10-31T13:41:22;258.58;;;168.18;;
25905;SDS011;13713;52.552;13.204;2022-10-31T13:43:59;259.83;;;170.18;;
25905;SDS011;13713;52.552;13.204;2022-10-31T13:46:34;266.42;;;173.23;;
25905;SDS011;13713;52.552;13.204;2022-10-31T13:49:03;294.83;;;196.43;;
25905;SDS011;13713;52.552;13.204;2022-10-31T13:51:32;272.20;;;179.23;;
25905;SDS011;13713;52.552;13.204;2022-10-31T13:54:06;276.38;;;175.82;;
25905;SDS011;13713;52.552;13.204;2022-10-31T13:56:49;288.70;;;191.57;;
25905;SDS011;13713;52.552;13.204;2022-10-31T13:59:23;258.92;;;163.57;;
25905;SDS011;13713;52.552;13.204;2022-10-31T14:01:56;272.70;;;179.18;;
25905;SDS011;13713;52.552;13.204;2022-10-31T14:04:46;277.10;;;176.55;;
25905;SDS011;13713;52.552;13.204;2022-10-31T14:07:17;279.27;;;171.38;;
25905;SDS011;13713;52.552;13.204;2022-10-31T14:12:39;252.32;;;157.95;;
25905;SDS011;13713;52.552;13.204;2022-10-31T14:15:13;239.68;;;154.60;;
25905;SDS011;13713;52.552;13.204;2022-10-31T14:17:49;267.55;;;164.95;;
25905;SDS011;13713;52.552;13.204;2022-10-31T14:28:51;266.02;;;166.68;;
25905;SDS011;13713;52.552;13.204;2022-10-31T14:31:29;278.63;;;173.65;;
25905;SDS011;13713;52.552;13.204;2022-10-31T14:39:51;265.15;;;169.25;;
25905;SDS011;13713;52.552;13.204;2022-10-31T14:44:59;271.90;;;179.18;;
25905;SDS011;13713;52.552;13.204;2022-10-31T14:47:44;268.52;;;175.68;;
25905;SDS011;13713;52.552;13.204;2022-10-31T14:50:45;269.65;;;169.43;;
25905;SDS011;13713;52.552;13.204;2022-10-31T14:53:24;281.10;;;179.82;;
25905;SDS011;13713;52.552;13.204;2022-10-31T14:55:54;468.63;;;312.17;;
25905;SDS011;13713;52.552;13.204;2022-10-31T14:58:29;325.55;;;213.35;;
25905;SDS011;13713;52.552;13.204;2022-10-31T15:01:02;311.67;;;199.43;;
25905;SDS011;13713;52.552;13.204;2022-10-31T15:03:38;303.27;;;193.50;;
25905;SDS011;13713;52.552;13.204;2022-10-31T15:06:13;304.75;;;199.82;;
25905;SDS011;13713;52.552;13.204;2022-10-31T15:08:45;310.77;;;197.23;;
25905;SDS011;13713;52.552;13.204;2022-10-31T15:11:20;296.77;;;186.30;;
25905;SDS011;13713;52.552;13.204;2022-10-31T15:13:51;302.83;;;195.30;;
25905;SDS011;13713;52.552;13.204;2022-10-31T15:16:20;307.60;;;190.50;;
25905;SDS011;13713;52.552;13.204;2022-10-31T15:18:55;316.42;;;199.07;;
25905;SDS011;13713;52.552;13.204;2022-10-31T15:21:23;307.63;;;193.68;;
25905;SDS011;13713;52.552;13.204;2022-10-31T15:23:51;312.23;;;191.32;;
25905;SDS011;13713;52.552;13.204;2022-10-31T15:26:19;355.27;;;219.05;;
25905;SDS011;13713;52.552;13.204;2022-10-31T15:28:56;385.42;;;228.20;;
25905;SDS011;13713;52.552;13.204;2022-10-31T15:31:24;344.35;;;218.27;;
25905;SDS011;13713;52.552;13.204;2022-10-31T15:33:50;340.10;;;223.30;;
25905;SDS011;13713;52.552;13.204;2022-10-31T15:36:18;335.15;;;208.05;;
25905;SDS011;13713;52.552;13.204;2022-10-31T15:38:46;348.42;;;217.27;;
25905;SDS011;13713;52.552;13.204;2022-10-31T15:44:16;356.40;;;206.60;;
25905;SDS011;13713;52.552;13.204;2022-10-31T15:46:59;318.00;;;189.27;;
25905;SDS011;13713;52.552;13.204;2022-10-31T15:49:32;304.15;;;188.98;;
25905;SDS011;13713;52.552;13.204;2022-10-31T15:52:28;308.55;;;186.57;;
25905;SDS011;13713;52.552;13.204;2022-10-31T15:55:01;293.98;;;182.20;;
25905;SDS011;13713;52.552;13.204;2022-10-31T15:57:48;327.90;;;192.48;;
25905;SDS011;13713;52.552;13.204;2022-10-31T16:03:02;294.90;;;178.45;;
25905;SDS011;13713;52.552;13.204;2022-10-31T16:08:24;302.33;;;184.13;;
25905;SDS011;13713;52.552;13.204;2022-10-31T16:10:56;302.42;;;177.52;;
25905;SDS011;13713;52.552;13.204;2022-10-31T16:13:41;298.77;;;182.40;;
25905;SDS011;13713;52.552;13.204;2022-10-31T16:16:17;284.73;;;173.25;;
25905;SDS011;13713;52.552;13.204;2022-10-31T16:18:45;360.70;;;159.82;;
25905;SDS011;13713;52.552;13.204;2022-10-31T16:21:12;324.95;;;130.98;;
25905;SDS011;13713;52.552;13.204;2022-10-31T16:23:38;229.77;;;104.80;;
25905;SDS011;13713;52.552;13.204;2022-10-31T16:26:12;235.75;;;123.50;;
25905;SDS011;13713;52.552;13.204;2022-10-31T16:28:49;256.95;;;133.18;;
25905;SDS011;13713;52.552;13.204;2022-10-31T16:31:24;268.92;;;139.65;;
25905;SDS011;13713;52.552;13.204;2022-10-31T16:34:14;259.90;;;138.32;;
25905;SDS011;13713;52.552;13.204;2022-10-31T16:36:42;258.73;;;134.52;;